Time;durP1;ratioP1;P1;durP2;ratioP2;P2;SDS_P1;SDS_P2;PMS_P1;PMS_P2;Temp;Humidity;BMP_temperature;BMP_pressure;BME280_temperature;BME280_humidity;BME280_pressure;Samples;Min_cycle;Max_cycle;Signal;HPM_P1;HPM_P2
2021/01/31 00:01:00;;;;;;;10.43;9.32;;;;;;;8.59;56.28;99673.28;4992396;27;118499;-62
2021/01/31 00:03:28;;;;;;;11.93;9.48;;;;;;;8.59;55.99;99675.16;4995390;27;104861;-62
2021/01/31 00:05:56;;;;;;;10.88;9.20;;;;;;;8.59;55.99;99669.78;4984593;27;98653;-62
2021/01/31 00:08:23;;;;;;;11.65;9.73;;;;;;;8.59;55.83;99664.41;5000696;27;111389;-62
2021/01/31 00:10:50;;;;;;;10.75;9.30;;;;;;;8.61;55.83;99670.34;4997764;27;98760;-64
2021/01/31 00:13:16;;;;;;;10.95;9.27;;;;;;;8.59;55.81;99677.84;4996481;27;98349;-62
2021/01/31 00:15:45;;;;;;;10.60;9.32;;;;;;;8.55;55.46;99671.41;4999966;27;97902;-62
2021/01/31 00:18:11;;;;;;;10.38;9.20;;;;;;;8.58;55.76;99673.56;4983885;27;97929;-63
2021/01/31 00:20:38;;;;;;;11.45;9.00;;;;;;;8.58;55.95;99668.97;4999470;27;99332;-62
2021/01/31 00:23:04;;;;;;;11.38;9.00;;;;;;;8.55;56.17;99668.72;5001425;27;107381;-62
2021/01/31 00:25:30;;;;;;;11.90;9.30;;;;;;;8.53;55.88;99670.88;4995216;27;97928;-62
2021/01/31 00:27:56;;;;;;;10.63;8.70;;;;;;;8.52;55.60;99670.06;5001669;27;97833;-62
2021/01/31 00:30:28;;;;;;;10.07;8.48;;;;;;;8.53;55.74;99673.59;4967462;27;115276;-63
2021/01/31 00:32:54;;;;;;;10.82;8.55;;;;;;;8.53;55.30;99666.31;4981774;28;98544;-62
2021/01/31 00:35:22;;;;;;;10.25;8.38;;;;;;;8.50;55.71;99669.53;4978452;27;127833;-61
2021/01/31 00:37:48;;;;;;;11.07;8.40;;;;;;;8.55;55.04;99668.72;4961663;28;111268;-62
2021/01/31 00:40:14;;;;;;;9.45;8.27;;;;;;;8.52;55.84;99672.75;4993358;27;128519;-61
2021/01/31 00:42:40;;;;;;;9.68;8.68;;;;;;;8.50;55.39;99669.53;4999036;27;99159;-62
2021/01/31 00:45:10;;;;;;;9.70;8.38;;;;;;;8.50;55.71;99669.53;5001755;27;121222;-62
2021/01/31 00:47:36;;;;;;;11.35;9.07;;;;;;;8.50;55.75;99668.75;4982739;27;110148;-63
2021/01/31 00:50:03;;;;;;;11.13;9.10;;;;;;;8.49;55.97;99661.75;5000486;27;126781;-62
2021/01/31 00:52:29;;;;;;;11.15;8.70;;;;;;;8.48;55.61;99665.50;4999745;27;122725;-63
2021/01/31 00:54:55;;;;;;;11.63;9.15;;;;;;;8.44;55.86;99662.56;4999728;27;128264;-63
2021/01/31 00:57:21;;;;;;;11.07;9.20;;;;;;;8.47;55.78;99662.03;4999350;27;118026;-62
2021/01/31 00:59:47;;;;;;;11.18;9.38;;;;;;;8.41;55.52;99657.75;4964018;28;127957;-62
2021/01/31 01:02:22;;;;;;;12.18;9.48;;;;;;;8.39;55.54;99661.78;4980300;27;126663;-62
2021/01/31 01:04:49;;;;;;;11.80;9.10;;;;;;;8.41;55.69;99662.31;4979003;27;126651;-62
2021/01/31 01:07:17;;;;;;;12.18;10.02;;;;;;;8.39;55.57;99665.28;4983648;27;98066;-62
2021/01/31 01:09:43;;;;;;;14.65;11.40;;;;;;;8.41;55.63;99662.31;4999805;27;98768;-62
2021/01/31 01:12:10;;;;;;;14.75;12.10;;;;;;;8.39;55.14;99670.63;4982711;27;104047;-62
2021/01/31 01:14:36;;;;;;;14.75;12.27;;;;;;;8.35;55.45;99677.59;4966930;28;98297;-62
2021/01/31 01:17:03;;;;;;;16.65;12.57;;;;;;;8.36;55.35;99682.69;4985518;28;98061;-61
2021/01/31 01:19:29;;;;;;;16.75;12.63;;;;;;;8.34;55.66;99687.53;4982600;28;126900;-62
2021/01/31 01:21:56;;;;;;;15.30;12.23;;;;;;;8.36;55.38;99682.69;4982291;27;99235;-61
2021/01/31 01:24:22;;;;;;;15.60;11.60;;;;;;;8.30;55.30;99683.78;4983876;27;98195;-62
2021/01/31 01:26:48;;;;;;;15.65;11.35;;;;;;;8.33;55.20;99680.56;4984902;27;117031;-62
2021/01/31 01:29:14;;;;;;;13.35;10.90;;;;;;;8.32;54.95;99691.56;4984003;28;98504;-62
2021/01/31 01:31:40;;;;;;;12.93;10.02;;;;;;;8.31;55.42;99685.41;4985684;27;127518;-62
2021/01/31 01:34:06;;;;;;;11.15;9.30;;;;;;;8.34;55.28;99684.06;4992937;27;98243;-62
2021/01/31 01:36:33;;;;;;;12.20;9.45;;;;;;;8.32;55.25;99686.19;5001220;27;97765;-62
2021/01/31 01:38:59;;;;;;;10.27;8.88;;;;;;;8.31;54.99;99681.91;4986719;27;98212;-63
2021/01/31 01:41:26;;;;;;;10.45;8.57;;;;;;;8.26;54.71;99676.56;5003862;27;98503;-62
2021/01/31 01:43:53;;;;;;;9.88;8.15;;;;;;;8.25;55.20;99680.28;5003715;27;97833;-62
2021/01/31 01:46:19;;;;;;;9.40;7.60;;;;;;;8.22;55.55;99668.22;5006000;27;97726;-62
2021/01/31 01:48:46;;;;;;;9.05;7.63;;;;;;;8.24;54.70;99670.63;5003197;27;98367;-62
2021/01/31 01:51:14;;;;;;;9.07;7.50;;;;;;;8.22;54.78;99678.16;4989250;27;121710;-62
2021/01/31 01:53:40;;;;;;;8.75;7.38;;;;;;;8.17;55.21;99673.59;4979773;28;123585;-62
2021/01/31 01:56:35;;;;;;;8.57;7.25;;;;;;;8.13;55.13;99672.50;4981588;27;97789;-62
2021/01/31 01:59:01;;;;;;;9.05;7.13;;;;;;;8.13;54.64;99680.56;4969086;28;98311;-62
2021/01/31 02:01:27;;;;;;;7.90;6.53;;;;;;;8.14;54.80;99676.84;4981906;27;98622;-61
2021/01/31 02:03:55;;;;;;;7.15;6.20;;;;;;;8.11;54.99;99672.78;4969516;27;127112;-62
2021/01/31 02:06:24;;;;;;;8.10;6.60;;;;;;;8.09;55.21;99674.13;5000582;27;112632;-62
2021/01/31 02:08:51;;;;;;;8.00;6.50;;;;;;;8.06;54.71;99672.81;4983822;27;98475;-62
2021/01/31 02:11:17;;;;;;;8.30;6.38;;;;;;;8.06;54.50;99675.50;5001898;27;98770;-62
2021/01/31 02:13:47;;;;;;;7.32;6.00;;;;;;;8.05;54.69;99684.59;5002247;27;120488;-62
2021/01/31 02:16:41;;;;;;;7.00;5.53;;;;;;;8.03;54.82;99683.28;4970230;27;97783;-62
2021/01/31 02:19:41;;;;;;;6.57;5.88;;;;;;;7.99;55.00;99688.38;4987903;27;99362;-61
2021/01/31 02:22:50;;;;;;;6.97;6.07;;;;;;;7.95;54.94;99687.31;5003791;27;98380;-62
2021/01/31 02:26:10;;;;;;;7.30;5.60;;;;;;;7.99;54.77;99687.56;4982426;27;123672;-62
2021/01/31 02:28:50;;;;;;;7.75;6.07;;;;;;;7.96;54.70;99680.84;4931807;28;98041;-62
2021/01/31 02:31:36;;;;;;;6.85;5.97;;;;;;;7.95;54.89;99686.50;4980434;27;98209;-61
2021/01/31 02:34:28;;;;;;;7.65;6.15;;;;;;;7.94;54.69;99688.38;4981636;28;98852;-62
2021/01/31 02:37:08;;;;;;;7.03;5.72;;;;;;;7.94;54.56;99688.38;4994897;27;124052;-62
2021/01/31 02:39:44;;;;;;;7.00;5.80;;;;;;;7.91;54.81;99688.91;4967052;28;97922;-62
2021/01/31 02:42:37;;;;;;;7.35;5.95;;;;;;;7.90;54.73;99695.38;5001531;27;121072;-61
2021/01/31 02:45:43;;;;;;;6.78;5.53;;;;;;;7.91;54.64;99690.78;5001601;27;98312;-61
2021/01/31 02:48:23;;;;;;;6.63;5.85;;;;;;;7.86;54.25;99691.59;4985618;27;123083;-61
2021/01/31 02:51:02;;;;;;;6.78;5.95;;;;;;;7.90;54.51;99699.91;4959282;28;106017;-61
2021/01/31 02:53:31;;;;;;;7.25;5.75;;;;;;;7.86;54.31;99695.09;4983808;27;124575;-61
2021/01/31 02:56:04;;;;;;;7.63;5.82;;;;;;;7.91;54.14;99685.44;4984042;27;117378;-61
2021/01/31 02:58:35;;;;;;;7.53;5.75;;;;;;;7.90;54.13;99684.63;4983760;27;120256;-62
2021/01/31 03:01:17;;;;;;;6.68;5.93;;;;;;;7.90;54.13;99692.69;4983715;27;113167;-61
2021/01/31 03:03:50;;;;;;;6.57;5.82;;;;;;;7.87;54.09;99698.56;4999565;27;124356;-61
2021/01/31 03:06:20;;;;;;;6.90;5.88;;;;;;;7.88;54.13;99692.13;4985311;27;98548;-62
2021/01/31 03:08:50;;;;;;;6.10;5.50;;;;;;;7.87;54.04;99698.56;4981753;27;122351;-61
2021/01/31 03:11:43;;;;;;;7.18;6.15;;;;;;;7.84;54.37;99702.59;4965392;27;108644;-61
2021/01/31 03:14:33;;;;;;;7.75;5.75;;;;;;;7.83;54.01;99710.91;4981403;28;98165;-61
2021/01/31 03:17:39;;;;;;;7.05;5.75;;;;;;;7.82;54.08;99701.22;4979801;28;124262;-62
2021/01/31 03:20:18;;;;;;;7.28;6.00;;;;;;;7.87;53.91;99698.56;4984069;27;98887;-61
2021/01/31 03:23:20;;;;;;;7.43;6.05;;;;;;;7.84;54.14;99701.78;4999455;27;97889;-61
2021/01/31 03:25:55;;;;;;;6.85;5.80;;;;;;;7.82;53.87;99691.34;5000387;27;110997;-61
2021/01/31 03:28:21;;;;;;;8.00;6.20;;;;;;;7.79;54.07;99704.47;4966739;27;98725;-61
2021/01/31 03:30:48;;;;;;;7.28;6.10;;;;;;;7.81;53.79;99705.78;4961374;28;126737;-61
2021/01/31 03:33:16;;;;;;;7.10;5.82;;;;;;;7.78;53.62;99711.72;4981667;27;115392;-61
2021/01/31 03:35:48;;;;;;;6.57;5.82;;;;;;;7.76;53.50;99715.72;4987487;27;105099;-62
2021/01/31 03:38:23;;;;;;;6.70;5.57;;;;;;;7.76;53.55;99723.78;4984793;27;99201;-61
2021/01/31 03:40:52;;;;;;;6.88;5.88;;;;;;;7.74;53.55;99716.00;4995974;27;98567;-61
2021/01/31 03:43:18;;;;;;;6.78;5.60;;;;;;;7.71;53.63;99726.47;4971769;28;97961;-61
2021/01/31 03:46:24;;;;;;;7.15;6.07;;;;;;;7.69;53.47;99732.06;4978956;28;128213;-62
2021/01/31 03:49:18;;;;;;;6.75;5.63;;;;;;;7.66;53.45;99729.91;4981240;28;98248;-62
2021/01/31 03:51:44;;;;;;;6.43;5.47;;;;;;;7.63;53.21;99733.97;4983553;27;98030;-62
2021/01/31 03:54:10;;;;;;;6.80;5.78;;;;;;;7.62;52.72;99742.25;4984672;27;97717;-61
2021/01/31 03:56:42;;;;;;;7.25;6.03;;;;;;;7.62;53.36;99739.56;4974058;28;127185;-61
2021/01/31 03:59:09;;;;;;;;;;;;;;;7.52;53.52;99744.94;4962978;28;119936;-62
2021/01/31 04:01:38;;;;;;;7.13;5.97;;;;;;;7.54;53.19;99746.25;4979461;27;127129;-61
2021/01/31 04:04:20;;;;;;;7.68;6.28;;;;;;;7.54;53.20;99740.88;4980941;27;97883;-62
2021/01/31 04:06:49;;;;;;;8.17;6.60;;;;;;;7.55;53.02;99750.56;4980736;27;98081;-61
2021/01/31 04:09:15;;;;;;;8.32;6.85;;;;;;;7.54;52.87;99750.81;4979521;27;123265;-62
2021/01/31 04:11:43;;;;;;;8.20;6.63;;;;;;;7.55;52.97;99745.22;4979149;27;127428;-61
2021/01/31 04:14:22;;;;;;;8.98;7.15;;;;;;;7.52;53.18;99744.94;4982029;28;97788;-61
2021/01/31 04:16:50;;;;;;;9.63;7.00;;;;;;;7.56;52.75;99744.13;4964793;27;98455;-61
2021/01/31 04:19:17;;;;;;;9.70;7.28;;;;;;;7.54;52.75;99754.31;4990529;27;115857;-61
2021/01/31 04:21:43;;;;;;;10.07;7.65;;;;;;;7.50;53.10;99749.75;5001117;27;119220;-61
2021/01/31 04:24:09;;;;;;;11.13;8.02;;;;;;;7.50;53.07;99749.75;5001140;27;113468;-62
2021/01/31 04:26:35;;;;;;;10.50;8.38;;;;;;;7.49;53.16;99746.25;4991415;27;98431;-62
2021/01/31 04:29:01;;;;;;;11.13;8.48;;;;;;;7.52;52.55;99751.09;4981149;27;118460;-62
2021/01/31 04:31:28;;;;;;;10.82;8.45;;;;;;;7.47;52.61;99758.34;4993324;27;126247;-61
2021/01/31 04:33:54;;;;;;;11.20;8.52;;;;;;;7.44;52.88;99754.28;4981173;27;115590;-62
2021/01/31 04:36:22;;;;;;;11.88;8.35;;;;;;;7.47;52.71;99747.59;4981266;28;113003;-61
2021/01/31 04:38:48;;;;;;;10.73;7.95;;;;;;;7.43;52.66;99747.31;4979779;28;117231;-61
2021/01/31 04:41:14;;;;;;;11.07;8.30;;;;;;;7.44;52.27;99748.94;4978237;27;127590;-61
2021/01/31 04:43:40;;;;;;;10.55;8.02;;;;;;;7.41;52.23;99741.41;4978937;28;97816;-62
2021/01/31 04:46:09;;;;;;;11.43;8.48;;;;;;;7.39;52.63;99748.91;4986233;27;116205;-62
2021/01/31 04:48:37;;;;;;;10.80;7.93;;;;;;;7.41;52.34;99748.66;4978706;28;98118;-61
2021/01/31 04:51:22;;;;;;;11.45;8.68;;;;;;;7.38;52.11;99749.97;4981078;27;97853;-61
2021/01/31 04:54:03;;;;;;;11.75;8.07;;;;;;;7.45;51.52;99755.09;4979032;28;112624;-61
2021/01/31 04:56:54;;;;;;;11.15;7.88;;;;;;;7.46;51.65;99756.69;4980397;27;99061;-61
2021/01/31 04:59:37;;;;;;;10.88;7.78;;;;;;;7.52;51.55;99751.09;4964255;28;98293;-61
2021/01/31 05:02:09;;;;;;;9.57;6.93;;;;;;;7.53;51.28;99755.38;4981476;27;97817;-62
2021/01/31 05:04:47;;;;;;;;;;;;;;;7.54;51.20;99751.63;4965648;28;97709;-62
2021/01/31 05:07:13;;;;;;;9.98;7.05;;;;;;;7.49;51.08;99756.97;4963785;28;112513;-62
2021/01/31 05:09:39;;;;;;;9.98;7.30;;;;;;;7.49;51.18;99756.97;4977828;28;121790;-61
2021/01/31 05:12:13;;;;;;;9.50;7.22;;;;;;;7.53;51.13;99757.25;4980066;27;126059;-61
2021/01/31 05:15:09;;;;;;;9.43;6.95;;;;;;;7.57;51.24;99758.34;4980560;27;97834;-62
2021/01/31 05:17:35;;;;;;;11.23;7.22;;;;;;;7.51;51.12;99759.41;4970743;27;98843;-61
2021/01/31 05:20:05;;;;;;;10.70;7.60;;;;;;;7.55;50.93;99769.34;4980658;27;99255;-62
2021/01/31 05:22:33;;;;;;;10.80;7.55;;;;;;;7.55;50.59;99765.88;4987939;27;114794;-62
2021/01/31 05:24:59;;;;;;;10.15;7.38;;;;;;;7.51;50.84;99770.94;4998274;27;97935;-62
2021/01/31 05:27:31;;;;;;;10.68;7.80;;;;;;;7.53;50.99;99774.16;4999840;27;128037;-61
2021/01/31 05:29:57;;;;;;;11.73;8.25;;;;;;;7.50;50.96;99774.69;4979682;27;123399;-62
2021/01/31 05:32:23;;;;;;;12.23;7.95;;;;;;;7.48;50.68;99779.50;4979835;27;127329;-62
2021/01/31 05:34:57;;;;;;;11.48;7.88;;;;;;;7.50;50.53;99777.34;4979611;27;108527;-62
2021/01/31 05:37:26;;;;;;;11.77;7.80;;;;;;;7.52;50.48;99780.59;4962243;28;102591;-61
2021/01/31 05:40:07;;;;;;;10.48;7.50;;;;;;;7.45;50.64;99772.00;4981243;27;97877;-61
2021/01/31 05:42:40;;;;;;;9.77;7.35;;;;;;;7.46;50.72;99776.28;4978339;27;98373;-63
2021/01/31 05:45:20;;;;;;;11.68;7.70;;;;;;;7.41;50.39;99773.59;4979842;28;98055;-62
2021/01/31 05:47:48;;;;;;;10.88;7.28;;;;;;;7.40;50.90;99784.59;4978246;28;98225;-61
2021/01/31 05:50:40;;;;;;;10.57;7.30;;;;;;;7.39;50.79;99781.09;4979059;27;122672;-61
2021/01/31 05:53:31;;;;;;;11.03;7.50;;;;;;;7.34;50.72;99781.06;4988436;27;97743;-61
2021/01/31 05:56:29;;;;;;;8.88;7.00;;;;;;;7.34;50.93;99783.75;4984780;28;97879;-61
2021/01/31 05:58:58;;;;;;;10.13;7.68;;;;;;;7.37;50.61;99788.59;4983932;28;99213;-61
2021/01/31 06:01:25;;;;;;;8.88;6.82;;;;;;;7.33;50.96;99793.66;4983897;27;98421;-61
2021/01/31 06:04:08;;;;;;;10.10;7.35;;;;;;;7.35;50.63;99793.41;4981387;28;121491;-61
2021/01/31 06:06:34;;;;;;;8.90;6.57;;;;;;;7.31;50.64;99797.66;4981859;27;114678;-62
2021/01/31 06:09:00;;;;;;;8.73;6.68;;;;;;;7.29;50.86;99795.25;4983776;27;98008;-61
2021/01/31 06:11:29;;;;;;;8.63;6.65;;;;;;;7.28;50.73;99792.84;4968094;27;128051;-61
2021/01/31 06:14:29;;;;;;;8.82;6.50;;;;;;;7.23;50.84;99790.13;5001403;27;97831;-62
2021/01/31 06:17:01;;;;;;;8.88;6.65;;;;;;;7.23;50.69;99800.84;4974582;28;98118;-61
2021/01/31 06:19:36;;;;;;;9.37;6.83;;;;;;;7.20;50.33;99796.81;4965270;28;98174;-61
2021/01/31 06:22:04;;;;;;;9.15;6.60;;;;;;;7.18;50.40;99800.81;4981501;27;99266;-61
2021/01/31 06:24:33;;;;;;;8.32;6.90;;;;;;;7.18;50.39;99807.00;4984828;27;98297;-61
2021/01/31 06:26:59;;;;;;;9.77;6.85;;;;;;;7.16;50.47;99806.47;4983780;28;97865;-62
2021/01/31 06:29:59;;;;;;;9.63;6.88;;;;;;;7.11;49.95;99801.06;4980912;27;124297;-61
2021/01/31 06:32:31;;;;;;;8.48;6.50;;;;;;;7.09;49.88;99803.19;4982093;27;98300;-61
2021/01/31 06:34:59;;;;;;;8.48;6.35;;;;;;;7.06;50.11;99809.06;4965633;28;98354;-61
2021/01/31 06:37:40;;;;;;;9.43;6.70;;;;;;;7.02;49.63;99806.09;4980764;27;97862;-62
2021/01/31 06:40:32;;;;;;;9.10;6.82;;;;;;;6.99;49.79;99808.50;4988464;27;98128;-61
2021/01/31 06:43:10;;;;;;;7.17;5.13;;;;;;;6.96;49.49;99809.84;5001257;27;98180;-61
2021/01/31 06:45:44;;;;;;;9.20;7.00;;;;;;;6.90;49.64;99813.53;4999683;27;98085;-61
2021/01/31 06:48:39;;;;;;;8.90;6.65;;;;;;;6.86;49.41;99812.44;4980976;28;97779;-61
2021/01/31 06:51:26;;;;;;;9.00;7.00;;;;;;;6.86;49.53;99815.13;4983584;27;98795;-61
2021/01/31 06:54:43;;;;;;;10.98;8.15;;;;;;;6.84;49.81;99823.44;4983626;27;98487;-62
2021/01/31 06:57:39;;;;;;;15.57;10.18;;;;;;;6.86;49.18;99815.13;4993825;27;98907;-62
2021/01/31 07:00:46;;;;;;;17.83;11.25;;;;;;;6.81;49.63;99815.09;4983705;27;97875;-62
2021/01/31 07:03:51;;;;;;;19.63;12.00;;;;;;;6.72;49.69;99820.13;4981039;28;110958;-61
2021/01/31 07:06:38;;;;;;;17.15;11.77;;;;;;;6.77;49.38;99820.16;4910393;28;126320;-61
2021/01/31 07:09:31;;;;;;;16.92;12.05;;;;;;;6.73;49.92;99813.72;4980130;27;98265;-61
2021/01/31 07:12:16;;;;;;;16.77;11.43;;;;;;;6.75;49.75;99826.81;4980204;27;98158;-61
2021/01/31 07:15:03;;;;;;;15.27;10.73;;;;;;;6.74;49.16;99825.22;4964510;28;121426;-61
2021/01/31 07:17:38;;;;;;;16.70;10.65;;;;;;;6.76;49.40;99831.94;4966280;28;98800;-61
2021/01/31 07:20:30;;;;;;;15.85;11.30;;;;;;;6.74;49.65;99833.25;4983364;27;121220;-61
2021/01/31 07:23:13;;;;;;;14.48;10.48;;;;;;;6.74;49.71;99834.06;4950466;28;97978;-61
2021/01/31 07:25:42;;;;;;;15.75;11.35;;;;;;;6.80;49.66;99842.97;4981272;27;98187;-61
2021/01/31 07:28:29;;;;;;;15.18;10.50;;;;;;;6.75;49.80;99840.22;4967137;27;123746;-62
2021/01/31 07:31:23;;;;;;;13.32;9.73;;;;;;;6.75;50.13;99838.34;4978961;28;98766;-61
2021/01/31 07:34:26;;;;;;;13.10;9.55;;;;;;;6.84;49.91;99833.34;4961916;28;97972;-61
2021/01/31 07:37:07;;;;;;;11.40;9.02;;;;;;;6.87;50.03;99835.47;4977917;27;98348;-62
2021/01/31 07:40:10;;;;;;;12.32;8.98;;;;;;;6.94;50.03;99837.94;4977592;28;98296;-62
2021/01/31 07:42:38;;;;;;;10.38;7.97;;;;;;;7.01;50.03;99838.53;4980354;27;98144;-62
2021/01/31 07:45:10;;;;;;;10.63;8.38;;;;;;;6.99;50.53;99835.28;5001244;27;97923;-61
2021/01/31 07:47:36;;;;;;;10.00;8.40;;;;;;;7.04;50.52;99838.03;4981050;27;98723;-61
2021/01/31 07:50:10;;;;;;;10.70;8.18;;;;;;;7.09;50.27;99838.84;4985757;27;128380;-61
2021/01/31 07:52:52;;;;;;;11.07;8.68;;;;;;;7.13;50.28;99833.78;4997726;27;99585;-62
2021/01/31 07:55:32;;;;;;;12.98;9.50;;;;;;;7.27;50.84;99842.97;4978445;27;97959;-61
2021/01/31 07:58:27;;;;;;;12.20;9.50;;;;;;;7.26;50.47;99837.88;4980339;27;98697;-61
2021/01/31 08:00:54;;;;;;;13.20;10.85;;;;;;;7.32;50.71;99834.16;4979027;27;107598;-61
2021/01/31 08:03:35;;;;;;;14.50;10.73;;;;;;;7.36;51.08;99824.53;4976549;28;124091;-61
2021/01/31 08:06:12;;;;;;;21.40;13.50;;;;;;;7.69;50.18;99828.66;4978450;28;97787;-61
2021/01/31 08:08:53;;;;;;;24.73;15.60;;;;;;;7.64;50.36;99823.28;4977281;27;97740;-62
2021/01/31 08:11:18;;;;;;;26.60;17.27;;;;;;;7.92;50.22;99832.75;4977195;28;98508;-62
2021/01/31 08:13:47;;;;;;;27.90;18.80;;;;;;;8.17;49.41;99823.94;4981002;28;98241;-62
2021/01/31 08:16:47;;;;;;;30.00;19.08;;;;;;;8.51;49.15;99821.56;4993730;27;97779;-63
2021/01/31 08:19:19;;;;;;;28.08;18.45;;;;;;;8.91;47.96;99816.44;4979635;28;98215;-61
2021/01/31 08:21:51;;;;;;;24.75;17.85;;;;;;;9.26;47.33;99812.84;4979635;28;98686;-61
2021/01/31 08:25:01;;;;;;;24.60;16.93;;;;;;;9.68;46.86;99808.91;4978427;27;98201;-62
2021/01/31 08:27:40;;;;;;;20.92;15.57;;;;;;;10.11;46.08;99804.63;4979483;28;98085;-62
2021/01/31 08:30:38;;;;;;;21.27;16.23;;;;;;;10.55;46.17;99803.78;4978669;27;98936;-62
2021/01/31 08:33:26;;;;;;;22.30;18.10;;;;;;;10.92;45.53;99794.25;4978825;28;98623;-63
2021/01/31 08:35:51;;;;;;;24.15;20.00;;;;;;;11.38;44.70;99802.66;4976951;28;98361;-62
2021/01/31 08:38:32;;;;;;;22.77;19.73;;;;;;;11.83;44.74;99792.38;4979472;28;98151;-63
2021/01/31 08:41:01;;;;;;;20.98;18.33;;;;;;;12.12;44.47;99788.72;4978575;28;98338;-62
2021/01/31 08:43:36;;;;;;;18.17;16.27;;;;;;;12.51;44.04;99789.16;4979011;27;98334;-62
2021/01/31 08:46:33;;;;;;;17.30;15.45;;;;;;;12.89;44.12;99785.53;4990543;27;97938;-62
2021/01/31 08:49:13;;;;;;;16.27;14.57;;;;;;;13.32;44.30;99788.78;4997233;27;97970;-62
2021/01/31 08:51:56;;;;;;;17.58;14.57;;;;;;;13.46;44.02;99781.44;4995590;27;105798;-62
2021/01/31 08:54:22;;;;;;;17.10;15.10;;;;;;;13.82;44.32;99777.97;4978330;27;97820;-63
2021/01/31 08:56:59;;;;;;;18.50;16.60;;;;;;;14.19;44.59;99778.78;4979015;28;97903;-62
2021/01/31 08:59:42;;;;;;;18.85;16.30;;;;;;;14.47;44.09;99779.44;4993411;27;97776;-63
2021/01/31 09:02:15;;;;;;;17.08;15.27;;;;;;;14.90;44.72;99781.63;4961828;28;124002;-62
2021/01/31 09:05:10;;;;;;;15.02;13.52;;;;;;;15.31;43.62;99781.28;4978746;27;99185;-62
2021/01/31 09:07:41;;;;;;;14.52;12.93;;;;;;;15.44;43.90;99779.56;4975983;28;126066;-62
2021/01/31 09:10:18;;;;;;;14.85;12.98;;;;;;;15.68;44.40;99779.16;4976788;28;105270;-62
2021/01/31 09:12:44;;;;;;;12.65;11.43;;;;;;;15.90;43.86;99781.72;4977991;27;99337;-63
2021/01/31 09:15:24;;;;;;;11.48;10.38;;;;;;;16.35;43.65;99781.41;4976590;27;127841;-63
2021/01/31 09:17:50;;;;;;;10.50;9.50;;;;;;;16.44;43.52;99784.91;4978053;27;98027;-63
2021/01/31 09:20:25;;;;;;;9.32;8.43;;;;;;;16.68;43.46;99780.84;4960701;28;97967;-63
2021/01/31 09:22:51;;;;;;;8.77;7.97;;;;;;;16.89;43.91;99778.25;4978934;27;98372;-63
2021/01/31 09:25:20;;;;;;;9.32;8.48;;;;;;;16.88;44.58;99773.94;4979784;27;98846;-63
2021/01/31 09:28:05;;;;;;;9.10;8.23;;;;;;;16.96;44.34;99773.09;4991811;27;105344;-63
2021/01/31 09:30:31;;;;;;;8.57;7.75;;;;;;;17.22;44.87;99764.84;4992971;27;98087;-63
2021/01/31 09:33:11;;;;;;;9.20;8.30;;;;;;;17.29;44.71;99772.47;4976599;27;98832;-63
2021/01/31 09:35:39;;;;;;;10.20;9.27;;;;;;;17.46;44.81;99763.41;4981113;27;99392;-63
2021/01/31 09:38:24;;;;;;;10.13;9.23;;;;;;;17.58;44.23;99768.94;4961651;28;126526;-63
2021/01/31 09:40:52;;;;;;;10.13;9.23;;;;;;;17.73;44.39;99762.91;4981110;28;98253;-63
2021/01/31 09:43:25;;;;;;;9.15;8.35;;;;;;;17.98;44.52;99765.78;4961617;28;108252;-63
2021/01/31 09:45:54;;;;;;;9.60;8.70;;;;;;;18.12;44.60;99769.84;4980653;28;98446;-63
2021/01/31 09:48:23;;;;;;;10.00;9.10;;;;;;;18.14;44.70;99770.28;4978716;28;98607;-63
2021/01/31 09:50:55;;;;;;;9.75;8.85;;;;;;;18.09;45.13;99778.69;4980671;27;109671;-63
2021/01/31 09:53:39;;;;;;;10.03;9.17;;;;;;;17.98;45.53;99780.22;4994277;27;99298;-63
2021/01/31 09:57:13;;;;;;;10.70;9.70;;;;;;;17.79;45.27;99780.69;5001642;27;98614;-64
2021/01/31 09:59:43;;;;;;;9.95;9.05;;;;;;;17.55;46.13;99775.84;4953693;28;118245;-63
2021/01/31 10:02:11;;;;;;;9.32;8.43;;;;;;;17.31;46.63;99776.47;4971262;28;98079;-62
2021/01/31 10:04:41;;;;;;;9.90;8.98;;;;;;;17.23;46.53;99774.59;4979488;28;98532;-62
2021/01/31 10:07:10;;;;;;;9.43;8.60;;;;;;;16.90;47.74;99785.31;4962722;28;99314;-63
2021/01/31 10:09:39;;;;;;;9.02;8.23;;;;;;;16.67;48.21;99780.06;4982043;27;97744;-63
2021/01/31 10:12:34;;;;;;;13.63;12.32;;;;;;;16.33;48.82;99783.63;4978481;28;108115;-62
2021/01/31 10:15:06;;;;;;;14.77;13.27;;;;;;;16.10;49.09;99785.72;4979745;27;122832;-63
2021/01/31 10:17:45;;;;;;;13.50;12.20;;;;;;;15.73;49.88;99783.66;4980433;27;121083;-62
2021/01/31 10:20:35;;;;;;;12.90;11.60;;;;;;;15.32;50.55;99784.78;4988718;27;111345;-63
2021/01/31 10:23:20;;;;;;;11.57;10.38;;;;;;;15.14;50.82;99784.75;5001480;27;97909;-62
2021/01/31 10:26:00;;;;;;;11.43;10.20;;;;;;;14.83;50.65;99782.06;4997542;27;128212;-64
2021/01/31 10:28:37;;;;;;;10.77;9.68;;;;;;;14.66;50.21;99781.97;4999390;27;98833;-62
2021/01/31 10:31:04;;;;;;;10.40;9.38;;;;;;;14.43;50.01;99789.31;5001600;27;102172;-63
2021/01/31 10:33:48;;;;;;;11.25;10.05;;;;;;;14.11;50.24;99785.72;4999870;27;118440;-63
2021/01/31 10:36:27;;;;;;;11.73;10.30;;;;;;;13.88;50.66;99790.31;5000415;27;99143;-62
2021/01/31 10:38:55;;;;;;;10.75;9.65;;;;;;;13.62;51.00;99786.53;5000385;27;99433;-62
2021/01/31 10:41:21;;;;;;;10.88;9.77;;;;;;;13.35;51.61;99787.38;5001256;27;98220;-63
2021/01/31 10:44:02;;;;;;;10.20;9.10;;;;;;;13.15;52.31;99792.06;5001193;27;98132;-62
2021/01/31 10:46:28;;;;;;;10.70;9.50;;;;;;;12.94;52.56;99780.03;5001389;27;98985;-62
2021/01/31 10:48:54;;;;;;;10.27;9.27;;;;;;;12.98;51.98;99783.75;4987589;27;98694;-62
2021/01/31 10:51:20;;;;;;;9.75;8.75;;;;;;;12.73;53.47;99791.22;4980738;28;98048;-63
2021/01/31 10:53:46;;;;;;;9.82;8.93;;;;;;;12.54;53.75;99782.38;4962416;28;98163;-63
2021/01/31 10:56:13;;;;;;;9.48;8.50;;;;;;;12.47;53.40;99782.75;4980374;27;124753;-62
2021/01/31 10:58:39;;;;;;;9.68;8.32;;;;;;;12.44;53.74;99779.81;4979057;28;128105;-62
2021/01/31 11:01:05;;;;;;;9.50;8.30;;;;;;;12.37;54.04;99782.91;4982646;27;98023;-62
2021/01/31 11:03:31;;;;;;;8.57;7.68;;;;;;;12.41;53.79;99770.41;4983209;27;97914;-63
2021/01/31 11:05:58;;;;;;;8.60;7.70;;;;;;;12.35;54.02;99776.22;5000158;27;127703;-62
2021/01/31 11:08:25;;;;;;;59.50;44.70;;;;;;;12.33;54.12;99776.47;4999824;27;120766;-62
2021/01/31 11:10:52;;;;;;;70.05;52.22;;;;;;;12.41;54.02;99769.59;4999533;27;98847;-63
2021/01/31 11:13:18;;;;;;;62.10;48.25;;;;;;;12.60;53.36;99772.25;5001277;27;98043;-63
2021/01/31 11:15:44;;;;;;;57.88;44.63;;;;;;;12.67;52.87;99778.09;4996083;27;112339;-63
2021/01/31 11:18:10;;;;;;;50.20;38.35;;;;;;;12.63;52.98;99772.47;4997720;27;126484;-63
2021/01/31 11:20:36;;;;;;;44.90;37.33;;;;;;;12.61;53.19;99771.16;5000356;27;98466;-63
2021/01/31 11:23:02;;;;;;;41.75;34.38;;;;;;;12.50;53.75;99765.94;4999284;27;116720;-63
2021/01/31 11:25:28;;;;;;;38.90;31.55;;;;;;;12.43;53.98;99768.22;4964495;27;126022;-64
2021/01/31 11:27:54;;;;;;;34.40;28.40;;;;;;;12.28;54.49;99766.56;4998330;27;111538;-63
2021/01/31 11:30:20;;;;;;;32.72;27.33;;;;;;;12.29;54.73;99768.16;4997179;27;126221;-63
2021/01/31 11:32:47;;;;;;;30.52;25.38;;;;;;;12.34;54.00;99763.78;4998254;27;110996;-63
2021/01/31 11:35:13;;;;;;;25.70;22.08;;;;;;;12.33;54.31;99762.19;4964797;27;98185;-63
2021/01/31 11:37:39;;;;;;;26.15;21.80;;;;;;;12.19;54.85;99762.94;4981551;27;114247;-64
2021/01/31 11:40:07;;;;;;;22.00;19.60;;;;;;;12.14;54.94;99765.69;4998188;27;120279;-63
2021/01/31 11:42:33;;;;;;;21.17;18.15;;;;;;;12.03;55.20;99765.06;5014826;27;111629;-63
2021/01/31 11:44:59;;;;;;;20.02;16.92;;;;;;;11.96;55.04;99761.13;4980744;27;98637;-63
2021/01/31 11:47:25;;;;;;;18.25;15.75;;;;;;;11.95;55.35;99762.25;4998072;27;98392;-63
2021/01/31 11:49:53;;;;;;;17.88;15.07;;;;;;;11.89;55.65;99760.69;4996710;27;127873;-63
2021/01/31 11:52:19;;;;;;;16.13;14.43;;;;;;;11.85;55.53;99757.78;4999057;27;97966;-63
2021/01/31 11:54:45;;;;;;;16.00;14.38;;;;;;;11.79;55.58;99753.53;4980087;27;123664;-63
2021/01/31 11:57:11;;;;;;;14.43;12.63;;;;;;;11.64;55.77;99751.03;4981021;27;105988;-62
2021/01/31 11:59:42;;;;;;;14.27;12.45;;;;;;;11.51;56.80;99747.16;4999651;27;97939;-62
2021/01/31 12:02:08;;;;;;;13.00;11.18;;;;;;;11.57;56.34;99745.19;4999645;27;97953;-62
2021/01/31 12:04:34;;;;;;;12.38;11.07;;;;;;;11.52;56.54;99743.38;4997934;27;127967;-63